sensor_id;sensor_type;location;lat;lon;timestamp;temperature;humidity
28959;DHT22;16066;0.000;0.000;2023-03-09T00:01:26;18.70;38.90
28959;DHT22;16066;0.000;0.000;2023-03-09T00:03:52;18.70;39.00
28959;DHT22;16066;0.000;0.000;2023-03-09T00:06:18;18.70;39.00
28959;DHT22;16066;0.000;0.000;2023-03-09T00:08:44;18.70;39.10
28959;DHT22;16066;0.000;0.000;2023-03-09T00:11:10;18.70;39.10
28959;DHT22;16066;0.000;0.000;2023-03-09T00:13:36;18.70;39.10
28959;DHT22;16066;0.000;0.000;2023-03-09T00:16:17;18.70;39.10
28959;DHT22;16066;0.000;0.000;2023-03-09T00:18:43;18.60;39.20
28959;DHT22;16066;0.000;0.000;2023-03-09T00:21:09;18.60;39.20
28959;DHT22;16066;0.000;0.000;2023-03-09T00:23:50;18.60;39.20
28959;DHT22;16066;0.000;0.000;2023-03-09T00:26:16;18.60;39.20
28959;DHT22;16066;0.000;0.000;2023-03-09T00:28:41;18.60;39.20
28959;DHT22;16066;0.000;0.000;2023-03-09T00:31:07;18.60;39.30
28959;DHT22;16066;0.000;0.000;2023-03-09T00:33:32;18.50;39.20
28959;DHT22;16066;0.000;0.000;2023-03-09T00:35:58;18.50;39.30
28959;DHT22;16066;0.000;0.000;2023-03-09T00:38:24;18.50;39.30
28959;DHT22;16066;0.000;0.000;2023-03-09T00:40:50;18.50;39.30
28959;DHT22;16066;0.000;0.000;2023-03-09T00:43:16;18.50;39.30
28959;DHT22;16066;0.000;0.000;2023-03-09T00:45:41;18.50;39.30
28959;DHT22;16066;0.000;0.000;2023-03-09T00:48:07;18.50;39.40
28959;DHT22;16066;0.000;0.000;2023-03-09T00:50:32;18.50;39.40
28959;DHT22;16066;0.000;0.000;2023-03-09T00:52:58;18.50;39.40
28959;DHT22;16066;0.000;0.000;2023-03-09T00:55:23;18.50;39.40
28959;DHT22;16066;0.000;0.000;2023-03-09T00:57:49;18.40;39.40
28959;DHT22;16066;0.000;0.000;2023-03-09T01:00:15;18.40;39.30
28959;DHT22;16066;0.000;0.000;2023-03-09T01:02:40;18.40;39.40
28959;DHT22;16066;0.000;0.000;2023-03-09T01:05:06;18.40;39.40
28959;DHT22;16066;0.000;0.000;2023-03-09T01:07:32;18.40;39.40
28959;DHT22;16066;0.000;0.000;2023-03-09T01:09:59;18.40;39.50
28959;DHT22;16066;0.000;0.000;2023-03-09T01:12:25;18.40;39.50
28959;DHT22;16066;0.000;0.000;2023-03-09T01:14:55;18.40;39.50
28959;DHT22;16066;0.000;0.000;2023-03-09T01:17:21;18.30;39.30
28959;DHT22;16066;0.000;0.000;2023-03-09T01:19:47;18.30;39.50
28959;DHT22;16066;0.000;0.000;2023-03-09T01:22:12;18.30;39.50
28959;DHT22;16066;0.000;0.000;2023-03-09T01:24:38;18.30;39.50
28959;DHT22;16066;0.000;0.000;2023-03-09T01:27:04;18.30;39.50
28959;DHT22;16066;0.000;0.000;2023-03-09T01:29:29;18.30;39.50
28959;DHT22;16066;0.000;0.000;2023-03-09T01:31:55;18.30;39.60
28959;DHT22;16066;0.000;0.000;2023-03-09T01:34:20;18.30;39.60
28959;DHT22;16066;0.000;0.000;2023-03-09T01:36:46;18.30;39.60
28959;DHT22;16066;0.000;0.000;2023-03-09T01:39:12;18.30;39.60
28959;DHT22;16066;0.000;0.000;2023-03-09T01:41:37;18.30;39.60
28959;DHT22;16066;0.000;0.000;2023-03-09T01:44:03;18.30;39.60
28959;DHT22;16066;0.000;0.000;2023-03-09T01:46:30;18.20;39.60
28959;DHT22;16066;0.000;0.000;2023-03-09T01:49:20;18.20;39.60
28959;DHT22;16066;0.000;0.000;2023-03-09T01:54:23;18.20;39.50
28959;DHT22;16066;0.000;0.000;2023-03-09T01:56:53;18.20;39.60
28959;DHT22;16066;0.000;0.000;2023-03-09T01:59:21;18.20;39.70
28959;DHT22;16066;0.000;0.000;2023-03-09T02:01:49;18.20;39.70
28959;DHT22;16066;0.000;0.000;2023-03-09T02:04:20;18.20;39.70
28959;DHT22;16066;0.000;0.000;2023-03-09T02:06:47;18.20;39.70
28959;DHT22;16066;0.000;0.000;2023-03-09T02:12:05;18.20;39.70
28959;DHT22;16066;0.000;0.000;2023-03-09T02:14:31;18.10;39.60
28959;DHT22;16066;0.000;0.000;2023-03-09T02:16:56;18.20;39.70
28959;DHT22;16066;0.000;0.000;2023-03-09T02:19:46;18.10;39.60
28959;DHT22;16066;0.000;0.000;2023-03-09T02:22:14;18.10;39.70
28959;DHT22;16066;0.000;0.000;2023-03-09T02:24:45;18.10;39.70
28959;DHT22;16066;0.000;0.000;2023-03-09T02:29:42;18.10;39.70
28959;DHT22;16066;0.000;0.000;2023-03-09T02:32:08;18.10;39.60
28959;DHT22;16066;0.000;0.000;2023-03-09T02:34:33;18.10;39.70
28959;DHT22;16066;0.000;0.000;2023-03-09T02:36:59;18.10;40.30
28959;DHT22;16066;0.000;0.000;2023-03-09T02:39:40;18.10;39.70
28959;DHT22;16066;0.000;0.000;2023-03-09T02:42:07;18.10;39.70
28959;DHT22;16066;0.000;0.000;2023-03-09T02:44:34;18.10;39.70
28959;DHT22;16066;0.000;0.000;2023-03-09T02:47:00;18.10;39.70
28959;DHT22;16066;0.000;0.000;2023-03-09T02:49:26;18.10;39.70
28959;DHT22;16066;0.000;0.000;2023-03-09T02:51:52;18.10;39.70
28959;DHT22;16066;0.000;0.000;2023-03-09T02:54:17;18.10;39.80
28959;DHT22;16066;0.000;0.000;2023-03-09T02:56:43;18.10;39.70
28959;DHT22;16066;0.000;0.000;2023-03-09T02:59:08;18.00;39.70
28959;DHT22;16066;0.000;0.000;2023-03-09T03:01:34;18.10;39.80
28959;DHT22;16066;0.000;0.000;2023-03-09T03:03:59;18.00;39.80
28959;DHT22;16066;0.000;0.000;2023-03-09T03:06:25;18.00;39.70
28959;DHT22;16066;0.000;0.000;2023-03-09T03:08:50;18.00;39.70
28959;DHT22;16066;0.000;0.000;2023-03-09T03:11:16;18.00;39.70
28959;DHT22;16066;0.000;0.000;2023-03-09T03:13:41;18.00;39.70
28959;DHT22;16066;0.000;0.000;2023-03-09T03:16:07;18.00;39.70
28959;DHT22;16066;0.000;0.000;2023-03-09T03:18:32;18.00;39.70
28959;DHT22;16066;0.000;0.000;2023-03-09T03:20:58;18.00;39.70
28959;DHT22;16066;0.000;0.000;2023-03-09T03:23:24;18.00;39.70
28959;DHT22;16066;0.000;0.000;2023-03-09T03:25:49;18.00;39.80
28959;DHT22;16066;0.000;0.000;2023-03-09T03:28:15;18.00;39.80
28959;DHT22;16066;0.000;0.000;2023-03-09T03:30:41;18.00;39.80
28959;DHT22;16066;0.000;0.000;2023-03-09T03:33:06;18.00;39.80
28959;DHT22;16066;0.000;0.000;2023-03-09T03:35:32;17.90;39.70
28959;DHT22;16066;0.000;0.000;2023-03-09T03:37:57;17.90;39.70
28959;DHT22;16066;0.000;0.000;2023-03-09T03:40:23;17.90;39.80
28959;DHT22;16066;0.000;0.000;2023-03-09T03:42:49;17.90;39.70
28959;DHT22;16066;0.000;0.000;2023-03-09T03:45:14;17.90;39.80
28959;DHT22;16066;0.000;0.000;2023-03-09T03:47:40;17.90;39.80
28959;DHT22;16066;0.000;0.000;2023-03-09T03:50:06;17.90;39.80
28959;DHT22;16066;0.000;0.000;2023-03-09T03:52:31;17.90;39.80
28959;DHT22;16066;0.000;0.000;2023-03-09T03:54:57;17.90;39.80
28959;DHT22;16066;0.000;0.000;2023-03-09T03:57:23;17.90;39.80
28959;DHT22;16066;0.000;0.000;2023-03-09T03:59:49;17.90;40.00
28959;DHT22;16066;0.000;0.000;2023-03-09T04:02:15;17.90;39.80
28959;DHT22;16066;0.000;0.000;2023-03-09T04:04:41;17.90;39.80
28959;DHT22;16066;0.000;0.000;2023-03-09T04:07:06;17.90;39.80
28959;DHT22;16066;0.000;0.000;2023-03-09T04:09:32;17.90;39.80
28959;DHT22;16066;0.000;0.000;2023-03-09T04:11:58;17.80;39.80
28959;DHT22;16066;0.000;0.000;2023-03-09T04:14:24;17.80;39.80
28959;DHT22;16066;0.000;0.000;2023-03-09T04:16:49;17.90;39.90
28959;DHT22;16066;0.000;0.000;2023-03-09T04:19:15;17.80;39.80
28959;DHT22;16066;0.000;0.000;2023-03-09T04:21:40;17.90;39.90
28959;DHT22;16066;0.000;0.000;2023-03-09T04:24:06;17.80;39.90
28959;DHT22;16066;0.000;0.000;2023-03-09T04:26:31;17.80;39.90
28959;DHT22;16066;0.000;0.000;2023-03-09T04:28:57;17.80;39.90
28959;DHT22;16066;0.000;0.000;2023-03-09T04:31:22;17.80;39.90
28959;DHT22;16066;0.000;0.000;2023-03-09T04:33:48;17.80;39.90
28959;DHT22;16066;0.000;0.000;2023-03-09T04:36:13;17.80;40.00
28959;DHT22;16066;0.000;0.000;2023-03-09T04:38:39;17.80;40.00
28959;DHT22;16066;0.000;0.000;2023-03-09T04:41:05;17.80;40.00
28959;DHT22;16066;0.000;0.000;2023-03-09T04:43:31;17.80;40.00
28959;DHT22;16066;0.000;0.000;2023-03-09T04:45:56;17.80;40.00
28959;DHT22;16066;0.000;0.000;2023-03-09T04:48:22;17.80;40.00
28959;DHT22;16066;0.000;0.000;2023-03-09T04:50:47;17.80;40.00
28959;DHT22;16066;0.000;0.000;2023-03-09T04:53:13;17.80;40.00
28959;DHT22;16066;0.000;0.000;2023-03-09T04:55:38;17.80;40.00
28959;DHT22;16066;0.000;0.000;2023-03-09T04:58:04;17.80;40.00
28959;DHT22;16066;0.000;0.000;2023-03-09T05:00:31;17.80;40.00
28959;DHT22;16066;0.000;0.000;2023-03-09T05:02:57;17.80;40.00
28959;DHT22;16066;0.000;0.000;2023-03-09T05:05:23;17.80;40.10
28959;DHT22;16066;0.000;0.000;2023-03-09T05:07:49;17.80;40.00
28959;DHT22;16066;0.000;0.000;2023-03-09T05:10:15;17.80;40.00
28959;DHT22;16066;0.000;0.000;2023-03-09T05:12:40;17.80;40.00
28959;DHT22;16066;0.000;0.000;2023-03-09T05:15:06;17.80;40.10
28959;DHT22;16066;0.000;0.000;2023-03-09T05:17:32;17.80;40.10
28959;DHT22;16066;0.000;0.000;2023-03-09T05:19:58;17.80;40.10
28959;DHT22;16066;0.000;0.000;2023-03-09T05:22:23;17.70;40.00
28959;DHT22;16066;0.000;0.000;2023-03-09T05:24:49;17.70;40.00
28959;DHT22;16066;0.000;0.000;2023-03-09T05:27:14;17.70;40.00
28959;DHT22;16066;0.000;0.000;2023-03-09T05:29:40;17.70;40.00
28959;DHT22;16066;0.000;0.000;2023-03-09T05:32:07;17.70;40.00
28959;DHT22;16066;0.000;0.000;2023-03-09T05:34:33;17.70;40.00
28959;DHT22;16066;0.000;0.000;2023-03-09T05:36:59;17.70;40.60
28959;DHT22;16066;0.000;0.000;2023-03-09T05:39:24;17.70;40.00
28959;DHT22;16066;0.000;0.000;2023-03-09T05:41:50;17.70;40.00
28959;DHT22;16066;0.000;0.000;2023-03-09T05:44:15;17.70;40.00
28959;DHT22;16066;0.000;0.000;2023-03-09T05:46:41;17.70;40.00
28959;DHT22;16066;0.000;0.000;2023-03-09T05:49:07;17.70;40.00
28959;DHT22;16066;0.000;0.000;2023-03-09T05:51:33;17.70;40.00
28959;DHT22;16066;0.000;0.000;2023-03-09T05:53:58;17.70;40.00
28959;DHT22;16066;0.000;0.000;2023-03-09T05:56:24;17.70;40.30
28959;DHT22;16066;0.000;0.000;2023-03-09T05:58:50;17.70;40.30
28959;DHT22;16066;0.000;0.000;2023-03-09T06:01:34;17.70;40.20
28959;DHT22;16066;0.000;0.000;2023-03-09T06:04:00;17.70;40.20
28959;DHT22;16066;0.000;0.000;2023-03-09T06:06:25;17.70;40.10
28959;DHT22;16066;0.000;0.000;2023-03-09T06:08:51;17.80;40.10
28959;DHT22;16066;0.000;0.000;2023-03-09T06:11:18;17.70;40.00
28959;DHT22;16066;0.000;0.000;2023-03-09T06:13:44;17.70;40.00
28959;DHT22;16066;0.000;0.000;2023-03-09T06:16:16;17.80;40.30
28959;DHT22;16066;0.000;0.000;2023-03-09T06:18:43;17.80;40.20
28959;DHT22;16066;0.000;0.000;2023-03-09T06:21:09;17.80;40.80
28959;DHT22;16066;0.000;0.000;2023-03-09T06:23:36;17.80;40.10
28959;DHT22;16066;0.000;0.000;2023-03-09T06:26:03;17.80;40.10
28959;DHT22;16066;0.000;0.000;2023-03-09T06:28:29;17.80;40.10
28959;DHT22;16066;0.000;0.000;2023-03-09T06:30:55;17.80;40.10
28959;DHT22;16066;0.000;0.000;2023-03-09T06:33:20;17.80;40.10
28959;DHT22;16066;0.000;0.000;2023-03-09T06:35:46;17.80;40.00
28959;DHT22;16066;0.000;0.000;2023-03-09T06:38:11;17.80;40.00
28959;DHT22;16066;0.000;0.000;2023-03-09T06:40:37;17.80;40.00
28959;DHT22;16066;0.000;0.000;2023-03-09T06:43:02;17.90;40.10
28959;DHT22;16066;0.000;0.000;2023-03-09T06:45:28;17.80;39.90
28959;DHT22;16066;0.000;0.000;2023-03-09T06:47:55;17.90;40.00
28959;DHT22;16066;0.000;0.000;2023-03-09T06:50:21;18.00;40.00
28959;DHT22;16066;0.000;0.000;2023-03-09T06:52:47;18.00;39.90
28959;DHT22;16066;0.000;0.000;2023-03-09T06:55:13;18.10;40.10
28959;DHT22;16066;0.000;0.000;2023-03-09T06:57:39;18.20;40.40
28959;DHT22;16066;0.000;0.000;2023-03-09T07:00:06;18.20;40.50
28959;DHT22;16066;0.000;0.000;2023-03-09T07:02:33;18.30;40.50
28959;DHT22;16066;0.000;0.000;2023-03-09T07:04:58;18.40;40.40
28959;DHT22;16066;0.000;0.000;2023-03-09T07:07:24;18.50;40.40
28959;DHT22;16066;0.000;0.000;2023-03-09T07:09:49;18.50;40.40
28959;DHT22;16066;0.000;0.000;2023-03-09T07:12:15;18.60;40.20
28959;DHT22;16066;0.000;0.000;2023-03-09T07:14:40;18.70;40.20
28959;DHT22;16066;0.000;0.000;2023-03-09T07:17:11;18.80;40.10
28959;DHT22;16066;0.000;0.000;2023-03-09T07:19:37;18.90;40.00
28959;DHT22;16066;0.000;0.000;2023-03-09T07:22:03;18.90;40.10
28959;DHT22;16066;0.000;0.000;2023-03-09T07:24:28;19.00;40.00
28959;DHT22;16066;0.000;0.000;2023-03-09T07:26:54;19.20;40.00
28959;DHT22;16066;0.000;0.000;2023-03-09T07:29:19;19.30;39.80
28959;DHT22;16066;0.000;0.000;2023-03-09T07:31:45;19.30;39.70
28959;DHT22;16066;0.000;0.000;2023-03-09T07:34:11;19.40;39.80
28959;DHT22;16066;0.000;0.000;2023-03-09T07:36:36;19.50;39.70
28959;DHT22;16066;0.000;0.000;2023-03-09T07:39:02;19.60;39.70
28959;DHT22;16066;0.000;0.000;2023-03-09T07:41:28;19.60;39.60
28959;DHT22;16066;0.000;0.000;2023-03-09T07:43:53;19.70;39.60
28959;DHT22;16066;0.000;0.000;2023-03-09T07:46:19;19.70;39.50
28959;DHT22;16066;0.000;0.000;2023-03-09T07:48:45;19.80;39.40
28959;DHT22;16066;0.000;0.000;2023-03-09T07:51:11;19.80;39.40
28959;DHT22;16066;0.000;0.000;2023-03-09T07:53:39;19.90;39.40
28959;DHT22;16066;0.000;0.000;2023-03-09T07:56:06;19.90;39.30
28959;DHT22;16066;0.000;0.000;2023-03-09T07:58:34;19.90;39.30
28959;DHT22;16066;0.000;0.000;2023-03-09T08:01:01;19.90;39.30
28959;DHT22;16066;0.000;0.000;2023-03-09T08:03:27;20.00;39.10
28959;DHT22;16066;0.000;0.000;2023-03-09T08:05:53;20.00;39.10
28959;DHT22;16066;0.000;0.000;2023-03-09T08:08:27;20.00;38.90
28959;DHT22;16066;0.000;0.000;2023-03-09T08:10:53;20.00;38.90
28959;DHT22;16066;0.000;0.000;2023-03-09T08:13:22;20.00;38.80
28959;DHT22;16066;0.000;0.000;2023-03-09T08:15:48;20.00;38.70
28959;DHT22;16066;0.000;0.000;2023-03-09T08:18:14;20.00;38.60
28959;DHT22;16066;0.000;0.000;2023-03-09T08:20:40;20.00;38.50
28959;DHT22;16066;0.000;0.000;2023-03-09T08:23:06;20.00;38.50
28959;DHT22;16066;0.000;0.000;2023-03-09T08:25:33;20.00;38.50
28959;DHT22;16066;0.000;0.000;2023-03-09T08:27:59;20.00;38.40
28959;DHT22;16066;0.000;0.000;2023-03-09T08:30:24;20.00;38.90
28959;DHT22;16066;0.000;0.000;2023-03-09T08:32:51;20.10;39.00
28959;DHT22;16066;0.000;0.000;2023-03-09T08:35:18;20.10;38.90
28959;DHT22;16066;0.000;0.000;2023-03-09T08:37:44;20.10;39.00
28959;DHT22;16066;0.000;0.000;2023-03-09T08:40:11;20.10;38.90
28959;DHT22;16066;0.000;0.000;2023-03-09T08:42:37;20.10;38.90
28959;DHT22;16066;0.000;0.000;2023-03-09T08:45:03;20.10;39.00
28959;DHT22;16066;0.000;0.000;2023-03-09T08:47:29;20.10;39.00
28959;DHT22;16066;0.000;0.000;2023-03-09T08:49:55;20.10;38.70
28959;DHT22;16066;0.000;0.000;2023-03-09T08:52:20;20.00;38.60
28959;DHT22;16066;0.000;0.000;2023-03-09T08:54:46;20.00;38.10
28959;DHT22;16066;0.000;0.000;2023-03-09T08:57:12;20.00;38.20
28959;DHT22;16066;0.000;0.000;2023-03-09T08:59:38;20.00;38.30
28959;DHT22;16066;0.000;0.000;2023-03-09T09:02:04;20.00;38.50
28959;DHT22;16066;0.000;0.000;2023-03-09T09:04:30;20.00;38.60
28959;DHT22;16066;0.000;0.000;2023-03-09T09:06:55;20.00;38.60
28959;DHT22;16066;0.000;0.000;2023-03-09T09:09:21;20.00;38.50
28959;DHT22;16066;0.000;0.000;2023-03-09T09:11:46;20.00;38.40
28959;DHT22;16066;0.000;0.000;2023-03-09T09:14:12;20.00;38.30
28959;DHT22;16066;0.000;0.000;2023-03-09T09:16:37;20.00;38.30
28959;DHT22;16066;0.000;0.000;2023-03-09T09:19:03;20.00;38.30
28959;DHT22;16066;0.000;0.000;2023-03-09T09:21:29;20.00;38.30
28959;DHT22;16066;0.000;0.000;2023-03-09T09:23:55;20.00;38.20
28959;DHT22;16066;0.000;0.000;2023-03-09T09:26:20;20.00;38.20
28959;DHT22;16066;0.000;0.000;2023-03-09T09:28:46;20.00;38.10
28959;DHT22;16066;0.000;0.000;2023-03-09T09:31:16;20.00;38.10
28959;DHT22;16066;0.000;0.000;2023-03-09T09:33:42;20.00;38.10
28959;DHT22;16066;0.000;0.000;2023-03-09T09:36:11;20.00;38.20
28959;DHT22;16066;0.000;0.000;2023-03-09T09:38:38;20.00;38.20
28959;DHT22;16066;0.000;0.000;2023-03-09T09:41:29;20.00;38.00
28959;DHT22;16066;0.000;0.000;2023-03-09T09:44:01;20.00;38.10
28959;DHT22;16066;0.000;0.000;2023-03-09T09:46:29;20.00;38.10
28959;DHT22;16066;0.000;0.000;2023-03-09T09:48:57;20.00;38.10
28959;DHT22;16066;0.000;0.000;2023-03-09T09:51:40;20.00;38.20
28959;DHT22;16066;0.000;0.000;2023-03-09T09:56:55;19.90;38.20
28959;DHT22;16066;0.000;0.000;2023-03-09T10:02:37;19.90;38.30
28959;DHT22;16066;0.000;0.000;2023-03-09T10:05:11;19.90;38.30
28959;DHT22;16066;0.000;0.000;2023-03-09T10:07:38;19.90;38.30
28959;DHT22;16066;0.000;0.000;2023-03-09T10:10:09;19.90;38.50
28959;DHT22;16066;0.000;0.000;2023-03-09T10:12:36;19.90;38.80
28959;DHT22;16066;0.000;0.000;2023-03-09T10:15:20;19.90;39.20
28959;DHT22;16066;0.000;0.000;2023-03-09T10:17:57;19.80;39.10
28959;DHT22;16066;0.000;0.000;2023-03-09T10:20:35;19.80;39.20
28959;DHT22;16066;0.000;0.000;2023-03-09T10:23:17;19.80;39.10
28959;DHT22;16066;0.000;0.000;2023-03-09T10:25:44;19.80;39.00
28959;DHT22;16066;0.000;0.000;2023-03-09T10:28:19;19.80;39.00
28959;DHT22;16066;0.000;0.000;2023-03-09T10:30:51;19.80;39.30
28959;DHT22;16066;0.000;0.000;2023-03-09T10:33:40;19.70;39.70
28959;DHT22;16066;0.000;0.000;2023-03-09T10:36:30;19.70;40.40
28959;DHT22;16066;0.000;0.000;2023-03-09T10:39:04;19.70;40.50
28959;DHT22;16066;0.000;0.000;2023-03-09T10:41:35;19.70;40.30
28959;DHT22;16066;0.000;0.000;2023-03-09T10:44:02;19.70;40.60
28959;DHT22;16066;0.000;0.000;2023-03-09T10:46:30;19.60;40.60
28959;DHT22;16066;0.000;0.000;2023-03-09T10:49:25;19.60;40.60
28959;DHT22;16066;0.000;0.000;2023-03-09T10:52:00;19.60;41.70
28959;DHT22;16066;0.000;0.000;2023-03-09T10:54:37;19.60;41.40
28959;DHT22;16066;0.000;0.000;2023-03-09T10:57:24;19.50;41.20
28959;DHT22;16066;0.000;0.000;2023-03-09T10:59:59;19.60;41.60
28959;DHT22;16066;0.000;0.000;2023-03-09T11:02:35;19.60;42.20
28959;DHT22;16066;0.000;0.000;2023-03-09T11:05:18;19.60;42.30
28959;DHT22;16066;0.000;0.000;2023-03-09T11:07:53;19.60;42.20
28959;DHT22;16066;0.000;0.000;2023-03-09T11:10:31;19.60;42.20
28959;DHT22;16066;0.000;0.000;2023-03-09T11:12:58;19.60;42.10
28959;DHT22;16066;0.000;0.000;2023-03-09T11:15:29;19.60;42.10
28959;DHT22;16066;0.000;0.000;2023-03-09T11:17:56;19.60;42.10
28959;DHT22;16066;0.000;0.000;2023-03-09T11:25:47;19.50;42.10
28959;DHT22;16066;0.000;0.000;2023-03-09T11:31:01;19.50;42.00
28959;DHT22;16066;0.000;0.000;2023-03-09T11:33:28;19.50;42.00
28959;DHT22;16066;0.000;0.000;2023-03-09T11:35:55;19.50;42.00
28959;DHT22;16066;0.000;0.000;2023-03-09T11:38:22;19.50;42.10
28959;DHT22;16066;0.000;0.000;2023-03-09T11:40:50;19.50;42.10
28959;DHT22;16066;0.000;0.000;2023-03-09T11:43:50;19.50;41.80
28959;DHT22;16066;0.000;0.000;2023-03-09T11:46:17;19.50;41.20
28959;DHT22;16066;0.000;0.000;2023-03-09T11:48:49;19.50;41.10
28959;DHT22;16066;0.000;0.000;2023-03-09T11:51:23;19.50;40.90
28959;DHT22;16066;0.000;0.000;2023-03-09T11:56:45;19.40;40.60
28959;DHT22;16066;0.000;0.000;2023-03-09T12:01:47;19.40;40.20
28959;DHT22;16066;0.000;0.000;2023-03-09T12:04:16;19.40;40.10
28959;DHT22;16066;0.000;0.000;2023-03-09T12:14:48;19.50;40.50
28959;DHT22;16066;0.000;0.000;2023-03-09T12:17:18;19.50;40.70
28959;DHT22;16066;0.000;0.000;2023-03-09T12:19:51;19.50;41.00
28959;DHT22;16066;0.000;0.000;2023-03-09T12:22:29;19.50;41.00
28959;DHT22;16066;0.000;0.000;2023-03-09T12:25:04;19.50;41.20
28959;DHT22;16066;0.000;0.000;2023-03-09T12:27:34;19.60;41.30
28959;DHT22;16066;0.000;0.000;2023-03-09T12:34:53;19.60;42.50
28959;DHT22;16066;0.000;0.000;2023-03-09T12:42:40;19.70;42.60
28959;DHT22;16066;0.000;0.000;2023-03-09T12:47:51;19.70;42.50
28959;DHT22;16066;0.000;0.000;2023-03-09T12:53:16;19.70;42.00
28959;DHT22;16066;0.000;0.000;2023-03-09T12:55:52;19.70;41.80
28959;DHT22;16066;0.000;0.000;2023-03-09T13:09:02;19.70;42.30
28959;DHT22;16066;0.000;0.000;2023-03-09T13:11:35;19.70;42.90
28959;DHT22;16066;0.000;0.000;2023-03-09T13:24:30;19.70;42.50
28959;DHT22;16066;0.000;0.000;2023-03-09T13:27:27;19.70;42.40
28959;DHT22;16066;0.000;0.000;2023-03-09T13:30:17;19.70;42.20
28959;DHT22;16066;0.000;0.000;2023-03-09T13:35:26;19.70;42.40
28959;DHT22;16066;0.000;0.000;2023-03-09T13:37:55;19.60;42.30
28959;DHT22;16066;0.000;0.000;2023-03-09T13:42:51;19.60;42.40
28959;DHT22;16066;0.000;0.000;2023-03-09T13:45:22;19.60;42.30
28959;DHT22;16066;0.000;0.000;2023-03-09T13:47:56;19.60;42.40
28959;DHT22;16066;0.000;0.000;2023-03-09T13:50:25;19.60;42.30
28959;DHT22;16066;0.000;0.000;2023-03-09T13:53:05;19.60;42.30
28959;DHT22;16066;0.000;0.000;2023-03-09T13:55:32;19.60;42.30
28959;DHT22;16066;0.000;0.000;2023-03-09T13:58:19;19.60;42.40
28959;DHT22;16066;0.000;0.000;2023-03-09T14:00:59;19.60;42.40
28959;DHT22;16066;0.000;0.000;2023-03-09T14:03:28;19.60;42.70
28959;DHT22;16066;0.000;0.000;2023-03-09T14:06:06;19.60;42.60
28959;DHT22;16066;0.000;0.000;2023-03-09T14:08:41;19.60;42.60
28959;DHT22;16066;0.000;0.000;2023-03-09T14:11:20;19.60;42.40
28959;DHT22;16066;0.000;0.000;2023-03-09T14:14:02;19.60;42.50
28959;DHT22;16066;0.000;0.000;2023-03-09T14:16:34;19.60;42.50
28959;DHT22;16066;0.000;0.000;2023-03-09T14:19:02;19.50;42.40
28959;DHT22;16066;0.000;0.000;2023-03-09T14:21:33;19.50;42.40
28959;DHT22;16066;0.000;0.000;2023-03-09T14:26:42;19.50;42.20
28959;DHT22;16066;0.000;0.000;2023-03-09T14:31:39;19.50;42.20
28959;DHT22;16066;0.000;0.000;2023-03-09T14:34:23;19.50;42.30
28959;DHT22;16066;0.000;0.000;2023-03-09T14:36:52;19.50;42.30
28959;DHT22;16066;0.000;0.000;2023-03-09T14:39:28;19.40;42.30
28959;DHT22;16066;0.000;0.000;2023-03-09T14:42:16;19.40;42.20
28959;DHT22;16066;0.000;0.000;2023-03-09T14:44:45;19.40;42.20
28959;DHT22;16066;0.000;0.000;2023-03-09T14:47:19;19.40;42.30
28959;DHT22;16066;0.000;0.000;2023-03-09T14:49:50;19.40;42.30
28959;DHT22;16066;0.000;0.000;2023-03-09T14:52:16;19.40;42.30
28959;DHT22;16066;0.000;0.000;2023-03-09T14:54:42;19.40;42.30
28959;DHT22;16066;0.000;0.000;2023-03-09T14:57:13;19.40;42.30
28959;DHT22;16066;0.000;0.000;2023-03-09T14:59:39;19.40;42.40
28959;DHT22;16066;0.000;0.000;2023-03-09T15:02:07;19.50;42.40
28959;DHT22;16066;0.000;0.000;2023-03-09T15:04:34;19.50;42.30
28959;DHT22;16066;0.000;0.000;2023-03-09T15:07:00;19.50;42.40
28959;DHT22;16066;0.000;0.000;2023-03-09T15:09:29;19.40;42.10
28959;DHT22;16066;0.000;0.000;2023-03-09T15:11:57;19.40;42.20
28959;DHT22;16066;0.000;0.000;2023-03-09T15:14:30;19.40;42.10
28959;DHT22;16066;0.000;0.000;2023-03-09T15:16:56;19.40;42.10
28959;DHT22;16066;0.000;0.000;2023-03-09T15:19:22;19.40;42.10
28959;DHT22;16066;0.000;0.000;2023-03-09T15:21:51;19.40;42.10
28959;DHT22;16066;0.000;0.000;2023-03-09T15:24:20;19.40;42.00
28959;DHT22;16066;0.000;0.000;2023-03-09T15:26:46;19.40;41.90
28959;DHT22;16066;0.000;0.000;2023-03-09T15:29:11;19.40;42.00
28959;DHT22;16066;0.000;0.000;2023-03-09T15:31:37;19.40;42.10
28959;DHT22;16066;0.000;0.000;2023-03-09T15:34:02;19.40;42.10
28959;DHT22;16066;0.000;0.000;2023-03-09T15:36:28;19.40;42.20
28959;DHT22;16066;0.000;0.000;2023-03-09T15:38:53;19.40;42.20
28959;DHT22;16066;0.000;0.000;2023-03-09T15:41:19;19.40;42.30
28959;DHT22;16066;0.000;0.000;2023-03-09T15:43:45;19.40;42.30
28959;DHT22;16066;0.000;0.000;2023-03-09T15:46:10;19.40;42.30
28959;DHT22;16066;0.000;0.000;2023-03-09T15:48:36;19.40;42.20
28959;DHT22;16066;0.000;0.000;2023-03-09T15:51:02;19.40;42.30
28959;DHT22;16066;0.000;0.000;2023-03-09T15:53:29;19.40;42.30
28959;DHT22;16066;0.000;0.000;2023-03-09T15:56:14;19.40;42.20
28959;DHT22;16066;0.000;0.000;2023-03-09T15:58:40;19.40;42.30
28959;DHT22;16066;0.000;0.000;2023-03-09T16:01:11;19.40;42.30
28959;DHT22;16066;0.000;0.000;2023-03-09T16:03:37;19.40;42.30
28959;DHT22;16066;0.000;0.000;2023-03-09T16:06:05;19.40;42.30
28959;DHT22;16066;0.000;0.000;2023-03-09T16:08:30;19.40;42.40
28959;DHT22;16066;0.000;0.000;2023-03-09T16:10:56;19.40;42.60
28959;DHT22;16066;0.000;0.000;2023-03-09T16:13:22;19.40;42.80
28959;DHT22;16066;0.000;0.000;2023-03-09T16:15:48;19.40;42.70
28959;DHT22;16066;0.000;0.000;2023-03-09T16:18:14;19.30;42.70
28959;DHT22;16066;0.000;0.000;2023-03-09T16:20:41;19.30;42.60
28959;DHT22;16066;0.000;0.000;2023-03-09T16:23:06;19.30;42.80
28959;DHT22;16066;0.000;0.000;2023-03-09T16:25:32;19.30;42.90
28959;DHT22;16066;0.000;0.000;2023-03-09T16:27:58;19.30;42.90
28959;DHT22;16066;0.000;0.000;2023-03-09T16:30:25;19.30;43.00
28959;DHT22;16066;0.000;0.000;2023-03-09T16:32:52;19.30;43.00
28959;DHT22;16066;0.000;0.000;2023-03-09T16:35:19;19.30;43.20
28959;DHT22;16066;0.000;0.000;2023-03-09T16:37:47;19.30;43.30
28959;DHT22;16066;0.000;0.000;2023-03-09T16:40:13;19.40;43.60
28959;DHT22;16066;0.000;0.000;2023-03-09T16:42:39;19.40;43.70
28959;DHT22;16066;0.000;0.000;2023-03-09T16:45:04;19.40;43.60
28959;DHT22;16066;0.000;0.000;2023-03-09T16:47:30;19.40;43.50
28959;DHT22;16066;0.000;0.000;2023-03-09T16:49:58;19.40;43.60
28959;DHT22;16066;0.000;0.000;2023-03-09T16:52:28;19.40;43.70
28959;DHT22;16066;0.000;0.000;2023-03-09T16:54:56;19.40;43.90
28959;DHT22;16066;0.000;0.000;2023-03-09T16:57:21;19.40;44.10
28959;DHT22;16066;0.000;0.000;2023-03-09T16:59:51;19.40;43.90
28959;DHT22;16066;0.000;0.000;2023-03-09T17:02:17;19.50;43.60
28959;DHT22;16066;0.000;0.000;2023-03-09T17:04:42;19.50;43.60
28959;DHT22;16066;0.000;0.000;2023-03-09T17:07:08;19.50;43.50
28959;DHT22;16066;0.000;0.000;2023-03-09T17:09:34;19.50;43.10
28959;DHT22;16066;0.000;0.000;2023-03-09T17:11:59;19.50;42.90
28959;DHT22;16066;0.000;0.000;2023-03-09T17:14:25;19.50;43.20